sensor_id;sensor_type;location;lat;lon;timestamp;P1;durP1;ratioP1;P2;durP2;ratioP2
33824;SDS011;20127;48.962;8.342;2023-02-25T00:26:53;5.28;;;4.40;;
33824;SDS011;20127;48.962;8.342;2023-02-25T00:54:14;11.32;;;4.75;;
33824;SDS011;20127;48.962;8.342;2023-02-25T00:57:45;9.52;;;5.25;;
33824;SDS011;20127;48.962;8.342;2023-02-25T01:01:01;11.73;;;5.10;;
33824;SDS011;20127;48.962;8.342;2023-02-25T01:04:04;7.35;;;5.13;;
33824;SDS011;20127;48.962;8.342;2023-02-25T01:07:13;8.00;;;5.50;;
33824;SDS011;20127;48.962;8.342;2023-02-25T01:10:21;14.68;;;6.03;;
33824;SDS011;20127;48.962;8.342;2023-02-25T01:13:23;7.78;;;5.38;;
33824;SDS011;20127;48.962;8.342;2023-02-25T01:16:25;9.73;;;5.35;;
33824;SDS011;20127;48.962;8.342;2023-02-25T01:19:34;10.88;;;5.47;;
33824;SDS011;20127;48.962;8.342;2023-02-25T01:22:40;12.60;;;5.80;;
33824;SDS011;20127;48.962;8.342;2023-02-25T01:25:45;15.63;;;5.43;;
33824;SDS011;20127;48.962;8.342;2023-02-25T01:29:04;11.57;;;6.40;;
33824;SDS011;20127;48.962;8.342;2023-02-25T01:32:08;16.05;;;6.50;;
33824;SDS011;20127;48.962;8.342;2023-02-25T01:35:14;10.15;;;6.05;;
33824;SDS011;20127;48.962;8.342;2023-02-25T01:38:16;12.35;;;7.15;;
33824;SDS011;20127;48.962;8.342;2023-02-25T01:41:19;12.75;;;7.10;;
33824;SDS011;20127;48.962;8.342;2023-02-25T01:44:27;10.82;;;6.38;;
33824;SDS011;20127;48.962;8.342;2023-02-25T01:47:30;11.18;;;5.88;;
33824;SDS011;20127;48.962;8.342;2023-02-25T01:57:40;13.23;;;6.85;;
33824;SDS011;20127;48.962;8.342;2023-02-25T02:00:42;9.52;;;5.75;;
33824;SDS011;20127;48.962;8.342;2023-02-25T02:03:44;8.40;;;5.20;;
33824;SDS011;20127;48.962;8.342;2023-02-25T02:06:47;7.85;;;4.70;;
33824;SDS011;20127;48.962;8.342;2023-02-25T02:09:50;7.43;;;3.58;;
33824;SDS011;20127;48.962;8.342;2023-02-25T02:12:57;7.53;;;3.72;;
33824;SDS011;20127;48.962;8.342;2023-02-25T02:16:07;6.72;;;4.90;;
33824;SDS011;20127;48.962;8.342;2023-02-25T02:19:50;3.17;;;2.53;;
33824;SDS011;20127;48.962;8.342;2023-02-25T02:26:59;7.38;;;3.55;;
33824;SDS011;20127;48.962;8.342;2023-02-25T02:30:14;8.57;;;3.03;;
33824;SDS011;20127;48.962;8.342;2023-02-25T02:33:43;9.02;;;4.35;;
33824;SDS011;20127;48.962;8.342;2023-02-25T02:37:40;3.43;;;2.77;;
33824;SDS011;20127;48.962;8.342;2023-02-25T02:41:00;5.03;;;2.73;;
33824;SDS011;20127;48.962;8.342;2023-02-25T02:44:21;4.65;;;2.58;;
33824;SDS011;20127;48.962;8.342;2023-02-25T02:47:50;9.50;;;2.80;;
33824;SDS011;20127;48.962;8.342;2023-02-25T03:08:51;5.78;;;2.70;;
33824;SDS011;20127;48.962;8.342;2023-02-25T03:12:07;8.07;;;2.65;;
33824;SDS011;20127;48.962;8.342;2023-02-25T03:15:09;4.28;;;2.60;;
33824;SDS011;20127;48.962;8.342;2023-02-25T03:18:15;5.88;;;1.67;;
33824;SDS011;20127;48.962;8.342;2023-02-25T03:21:27;4.47;;;2.72;;
33824;SDS011;20127;48.962;8.342;2023-02-25T03:24:38;10.27;;;2.30;;
33824;SDS011;20127;48.962;8.342;2023-02-25T03:27:48;7.13;;;1.70;;
33824;SDS011;20127;48.962;8.342;2023-02-25T03:31:06;3.50;;;1.48;;
33824;SDS011;20127;48.962;8.342;2023-02-25T03:34:27;2.60;;;1.40;;
33824;SDS011;20127;48.962;8.342;2023-02-25T03:37:53;4.20;;;1.52;;
33824;SDS011;20127;48.962;8.342;2023-02-25T03:41:06;4.88;;;1.83;;
33824;SDS011;20127;48.962;8.342;2023-02-25T03:44:11;3.88;;;1.55;;
33824;SDS011;20127;48.962;8.342;2023-02-25T03:47:24;3.97;;;2.08;;
33824;SDS011;20127;48.962;8.342;2023-02-25T03:50:35;6.35;;;1.27;;
33824;SDS011;20127;48.962;8.342;2023-02-25T03:54:06;2.03;;;1.08;;
33824;SDS011;20127;48.962;8.342;2023-02-25T04:49:20;5.90;;;2.22;;
33824;SDS011;20127;48.962;8.342;2023-02-25T04:52:45;4.95;;;1.52;;
33824;SDS011;20127;48.962;8.342;2023-02-25T04:55:50;1.60;;;1.15;;
33824;SDS011;20127;48.962;8.342;2023-02-25T04:59:36;5.20;;;2.05;;
33824;SDS011;20127;48.962;8.342;2023-02-25T05:03:35;4.70;;;1.38;;
33824;SDS011;20127;48.962;8.342;2023-02-25T05:11:27;1.73;;;0.82;;
33824;SDS011;20127;48.962;8.342;2023-02-25T05:15:00;6.85;;;1.83;;
33824;SDS011;20127;48.962;8.342;2023-02-25T05:32:52;2.65;;;1.40;;
33824;SDS011;20127;48.962;8.342;2023-02-25T05:35:54;5.40;;;1.48;;
33824;SDS011;20127;48.962;8.342;2023-02-25T05:39:03;5.80;;;1.30;;
33824;SDS011;20127;48.962;8.342;2023-02-25T05:42:13;9.75;;;2.75;;
33824;SDS011;20127;48.962;8.342;2023-02-25T05:45:17;4.43;;;1.60;;
33824;SDS011;20127;48.962;8.342;2023-02-25T05:58:53;7.63;;;5.32;;
33824;SDS011;20127;48.962;8.342;2023-02-25T06:02:35;5.57;;;2.70;;
33824;SDS011;20127;48.962;8.342;2023-02-25T06:05:52;4.28;;;2.25;;
33824;SDS011;20127;48.962;8.342;2023-02-25T06:08:54;4.38;;;1.73;;
33824;SDS011;20127;48.962;8.342;2023-02-25T06:11:56;9.82;;;1.85;;
33824;SDS011;20127;48.962;8.342;2023-02-25T06:14:59;2.70;;;1.70;;
33824;SDS011;20127;48.962;8.342;2023-02-25T06:18:03;4.90;;;2.25;;
33824;SDS011;20127;48.962;8.342;2023-02-25T06:21:09;2.50;;;1.00;;
33824;SDS011;20127;48.962;8.342;2023-02-25T06:24:13;6.82;;;2.08;;
33824;SDS011;20127;48.962;8.342;2023-02-25T06:27:21;2.05;;;1.38;;
33824;SDS011;20127;48.962;8.342;2023-02-25T06:30:24;2.45;;;1.02;;
33824;SDS011;20127;48.962;8.342;2023-02-25T06:33:27;2.88;;;1.90;;
33824;SDS011;20127;48.962;8.342;2023-02-25T06:36:31;3.92;;;2.65;;
33824;SDS011;20127;48.962;8.342;2023-02-25T06:39:39;5.60;;;1.80;;
33824;SDS011;20127;48.962;8.342;2023-02-25T06:42:42;2.28;;;1.45;;
33824;SDS011;20127;48.962;8.342;2023-02-25T06:49:19;3.45;;;2.17;;
33824;SDS011;20127;48.962;8.342;2023-02-25T06:52:22;5.95;;;0.90;;
33824;SDS011;20127;48.962;8.342;2023-02-25T06:55:24;4.18;;;1.80;;
33824;SDS011;20127;48.962;8.342;2023-02-25T06:58:35;2.80;;;2.03;;
33824;SDS011;20127;48.962;8.342;2023-02-25T07:01:54;6.03;;;1.98;;
33824;SDS011;20127;48.962;8.342;2023-02-25T07:05:16;3.58;;;1.70;;
33824;SDS011;20127;48.962;8.342;2023-02-25T07:08:17;8.75;;;1.75;;
33824;SDS011;20127;48.962;8.342;2023-02-25T07:11:33;5.20;;;2.83;;
33824;SDS011;20127;48.962;8.342;2023-02-25T07:15:08;6.13;;;1.92;;
33824;SDS011;20127;48.962;8.342;2023-02-25T07:26:43;5.15;;;2.03;;
33824;SDS011;20127;48.962;8.342;2023-02-25T07:29:45;4.60;;;2.00;;
33824;SDS011;20127;48.962;8.342;2023-02-25T07:32:50;10.07;;;2.67;;
33824;SDS011;20127;48.962;8.342;2023-02-25T07:36:01;3.78;;;2.03;;
33824;SDS011;20127;48.962;8.342;2023-02-25T07:39:19;17.08;;;15.48;;
33824;SDS011;20127;48.962;8.342;2023-02-25T07:42:25;19.05;;;14.07;;
33824;SDS011;20127;48.962;8.342;2023-02-25T07:45:27;14.25;;;11.35;;
33824;SDS011;20127;48.962;8.342;2023-02-25T07:48:51;48.88;;;36.58;;
33824;SDS011;20127;48.962;8.342;2023-02-25T07:52:07;78.13;;;51.38;;
33824;SDS011;20127;48.962;8.342;2023-02-25T07:55:09;41.83;;;31.92;;
33824;SDS011;20127;48.962;8.342;2023-02-25T07:58:13;21.25;;;13.25;;
33824;SDS011;20127;48.962;8.342;2023-02-25T08:01:17;15.73;;;6.18;;
33824;SDS011;20127;48.962;8.342;2023-02-25T08:04:22;16.33;;;4.75;;
33824;SDS011;20127;48.962;8.342;2023-02-25T08:07:24;7.15;;;5.15;;
33824;SDS011;20127;48.962;8.342;2023-02-25T08:10:27;8.13;;;4.80;;
33824;SDS011;20127;48.962;8.342;2023-02-25T08:13:34;11.65;;;7.20;;
33824;SDS011;20127;48.962;8.342;2023-02-25T08:16:36;15.43;;;2.58;;
33824;SDS011;20127;48.962;8.342;2023-02-25T08:19:38;5.65;;;2.15;;
33824;SDS011;20127;48.962;8.342;2023-02-25T08:22:40;5.00;;;2.65;;
33824;SDS011;20127;48.962;8.342;2023-02-25T08:25:42;5.80;;;2.83;;
33824;SDS011;20127;48.962;8.342;2023-02-25T08:28:48;9.80;;;3.67;;
33824;SDS011;20127;48.962;8.342;2023-02-25T08:31:52;5.10;;;2.55;;
33824;SDS011;20127;48.962;8.342;2023-02-25T08:35:22;86.38;;;53.92;;
33824;SDS011;20127;48.962;8.342;2023-02-25T08:38:37;39.83;;;26.83;;
33824;SDS011;20127;48.962;8.342;2023-02-25T08:42:07;23.85;;;14.10;;
33824;SDS011;20127;48.962;8.342;2023-02-25T08:45:12;11.07;;;4.60;;
33824;SDS011;20127;48.962;8.342;2023-02-25T08:51:49;24.88;;;12.10;;
33824;SDS011;20127;48.962;8.342;2023-02-25T08:55:20;74.10;;;32.00;;
33824;SDS011;20127;48.962;8.342;2023-02-25T08:58:49;61.13;;;29.80;;
33824;SDS011;20127;48.962;8.342;2023-02-25T09:06:00;21.42;;;10.30;;
33824;SDS011;20127;48.962;8.342;2023-02-25T09:09:03;14.95;;;8.20;;
33824;SDS011;20127;48.962;8.342;2023-02-25T09:12:07;16.00;;;10.25;;
33824;SDS011;20127;48.962;8.342;2023-02-25T09:15:11;9.60;;;4.53;;
33824;SDS011;20127;48.962;8.342;2023-02-25T09:18:18;5.35;;;3.25;;
33824;SDS011;20127;48.962;8.342;2023-02-25T09:21:21;5.47;;;3.28;;
33824;SDS011;20127;48.962;8.342;2023-02-25T09:24:23;7.38;;;3.22;;
33824;SDS011;20127;48.962;8.342;2023-02-25T09:27:28;10.23;;;4.13;;
33824;SDS011;20127;48.962;8.342;2023-02-25T09:30:30;3.75;;;2.78;;
33824;SDS011;20127;48.962;8.342;2023-02-25T09:33:33;8.98;;;3.13;;
33824;SDS011;20127;48.962;8.342;2023-02-25T09:36:47;8.52;;;2.78;;
33824;SDS011;20127;48.962;8.342;2023-02-25T09:39:49;9.15;;;2.63;;
33824;SDS011;20127;48.962;8.342;2023-02-25T09:43:00;9.20;;;2.45;;
33824;SDS011;20127;48.962;8.342;2023-02-25T09:46:09;7.07;;;2.75;;
33824;SDS011;20127;48.962;8.342;2023-02-25T09:49:19;9.88;;;2.10;;
33824;SDS011;20127;48.962;8.342;2023-02-25T09:52:29;16.40;;;6.70;;
33824;SDS011;20127;48.962;8.342;2023-02-25T09:55:35;3.63;;;2.20;;
33824;SDS011;20127;48.962;8.342;2023-02-25T09:58:40;7.93;;;2.40;;
33824;SDS011;20127;48.962;8.342;2023-02-25T10:01:45;7.00;;;2.10;;
33824;SDS011;20127;48.962;8.342;2023-02-25T10:04:53;2.40;;;1.60;;
33824;SDS011;20127;48.962;8.342;2023-02-25T10:08:06;3.97;;;2.15;;
33824;SDS011;20127;48.962;8.342;2023-02-25T10:11:14;4.40;;;1.55;;
33824;SDS011;20127;48.962;8.342;2023-02-25T10:14:36;6.18;;;1.95;;
33824;SDS011;20127;48.962;8.342;2023-02-25T10:18:09;9.63;;;2.25;;
33824;SDS011;20127;48.962;8.342;2023-02-25T10:21:34;6.63;;;2.22;;
33824;SDS011;20127;48.962;8.342;2023-02-25T10:28:14;12.20;;;5.70;;
33824;SDS011;20127;48.962;8.342;2023-02-25T10:31:19;19.80;;;5.25;;
33824;SDS011;20127;48.962;8.342;2023-02-25T10:34:29;6.68;;;2.38;;
33824;SDS011;20127;48.962;8.342;2023-02-25T10:37:33;10.43;;;2.47;;
33824;SDS011;20127;48.962;8.342;2023-02-25T10:40:38;4.15;;;1.90;;
33824;SDS011;20127;48.962;8.342;2023-02-25T10:43:41;8.93;;;1.70;;
33824;SDS011;20127;48.962;8.342;2023-02-25T10:46:45;6.60;;;2.20;;
33824;SDS011;20127;48.962;8.342;2023-02-25T10:50:11;5.50;;;2.28;;
33824;SDS011;20127;48.962;8.342;2023-02-25T10:53:16;9.27;;;2.63;;
33824;SDS011;20127;48.962;8.342;2023-02-25T10:56:20;8.82;;;1.85;;
33824;SDS011;20127;48.962;8.342;2023-02-25T10:59:26;8.30;;;2.00;;
33824;SDS011;20127;48.962;8.342;2023-02-25T11:02:38;5.15;;;1.85;;
33824;SDS011;20127;48.962;8.342;2023-02-25T11:05:42;5.78;;;1.45;;
33824;SDS011;20127;48.962;8.342;2023-02-25T11:08:44;10.23;;;1.75;;
33824;SDS011;20127;48.962;8.342;2023-02-25T11:11:52;6.15;;;1.90;;
33824;SDS011;20127;48.962;8.342;2023-02-25T11:14:55;6.07;;;1.45;;
33824;SDS011;20127;48.962;8.342;2023-02-25T11:17:57;4.50;;;1.25;;
33824;SDS011;20127;48.962;8.342;2023-02-25T11:21:05;6.13;;;1.70;;
33824;SDS011;20127;48.962;8.342;2023-02-25T11:24:11;4.80;;;1.63;;
33824;SDS011;20127;48.962;8.342;2023-02-25T11:27:22;2.70;;;1.13;;
33824;SDS011;20127;48.962;8.342;2023-02-25T11:30:30;3.47;;;2.08;;
33824;SDS011;20127;48.962;8.342;2023-02-25T11:33:37;1.35;;;1.20;;
33824;SDS011;20127;48.962;8.342;2023-02-25T11:39:50;3.30;;;1.00;;
33824;SDS011;20127;48.962;8.342;2023-02-25T11:43:01;5.85;;;1.55;;
33824;SDS011;20127;48.962;8.342;2023-02-25T11:46:19;7.45;;;2.85;;
33824;SDS011;20127;48.962;8.342;2023-02-25T11:49:29;5.38;;;1.38;;
33824;SDS011;20127;48.962;8.342;2023-02-25T11:52:42;9.50;;;2.38;;
33824;SDS011;20127;48.962;8.342;2023-02-25T11:55:56;5.22;;;1.50;;
33824;SDS011;20127;48.962;8.342;2023-02-25T11:59:09;6.07;;;2.00;;
33824;SDS011;20127;48.962;8.342;2023-02-25T12:02:24;2.45;;;1.58;;
33824;SDS011;20127;48.962;8.342;2023-02-25T12:12:58;8.05;;;1.70;;
33824;SDS011;20127;48.962;8.342;2023-02-25T12:16:44;4.00;;;1.27;;
33824;SDS011;20127;48.962;8.342;2023-02-25T12:20:20;3.25;;;1.10;;
33824;SDS011;20127;48.962;8.342;2023-02-25T12:23:54;3.33;;;2.83;;
33824;SDS011;20127;48.962;8.342;2023-02-25T12:27:38;6.20;;;2.15;;
33824;SDS011;20127;48.962;8.342;2023-02-25T12:31:01;6.53;;;2.05;;
33824;SDS011;20127;48.962;8.342;2023-02-25T12:34:30;4.55;;;1.42;;
33824;SDS011;20127;48.962;8.342;2023-02-25T12:41:53;5.45;;;1.80;;
33824;SDS011;20127;48.962;8.342;2023-02-25T12:48:50;3.35;;;1.60;;
33824;SDS011;20127;48.962;8.342;2023-02-25T12:52:15;6.25;;;4.97;;
33824;SDS011;20127;48.962;8.342;2023-02-25T12:55:29;14.93;;;9.07;;
33824;SDS011;20127;48.962;8.342;2023-02-25T12:58:51;34.80;;;21.55;;
33824;SDS011;20127;48.962;8.342;2023-02-25T13:02:18;71.07;;;45.60;;
33824;SDS011;20127;48.962;8.342;2023-02-25T13:09:14;47.67;;;39.22;;
33824;SDS011;20127;48.962;8.342;2023-02-25T13:12:32;26.88;;;21.70;;
33824;SDS011;20127;48.962;8.342;2023-02-25T13:15:48;34.65;;;30.70;;
33824;SDS011;20127;48.962;8.342;2023-02-25T13:19:08;22.50;;;20.33;;
33824;SDS011;20127;48.962;8.342;2023-02-25T13:22:29;11.98;;;6.35;;
33824;SDS011;20127;48.962;8.342;2023-02-25T13:25:57;6.10;;;4.70;;
33824;SDS011;20127;48.962;8.342;2023-02-25T13:29:14;9.40;;;7.28;;
33824;SDS011;20127;48.962;8.342;2023-02-25T13:32:27;10.02;;;5.93;;
33824;SDS011;20127;48.962;8.342;2023-02-25T13:35:38;7.35;;;5.15;;
33824;SDS011;20127;48.962;8.342;2023-02-25T13:38:55;6.70;;;5.30;;
33824;SDS011;20127;48.962;8.342;2023-02-25T13:42:14;4.65;;;3.05;;
33824;SDS011;20127;48.962;8.342;2023-02-25T13:49:08;8.27;;;3.08;;
33824;SDS011;20127;48.962;8.342;2023-02-25T13:52:26;9.57;;;3.20;;
33824;SDS011;20127;48.962;8.342;2023-02-25T13:55:43;5.97;;;2.83;;
33824;SDS011;20127;48.962;8.342;2023-02-25T13:59:00;9.65;;;2.17;;
33824;SDS011;20127;48.962;8.342;2023-02-25T14:02:23;5.55;;;2.33;;
33824;SDS011;20127;48.962;8.342;2023-02-25T14:05:40;3.25;;;1.60;;
33824;SDS011;20127;48.962;8.342;2023-02-25T14:09:13;3.50;;;1.73;;
33824;SDS011;20127;48.962;8.342;2023-02-25T14:12:30;5.15;;;1.58;;
33824;SDS011;20127;48.962;8.342;2023-02-25T14:15:48;7.00;;;1.80;;
33824;SDS011;20127;48.962;8.342;2023-02-25T14:19:02;3.13;;;1.10;;
33824;SDS011;20127;48.962;8.342;2023-02-25T14:22:23;3.97;;;1.50;;
33824;SDS011;20127;48.962;8.342;2023-02-25T14:25:36;5.13;;;2.28;;
33824;SDS011;20127;48.962;8.342;2023-02-25T14:28:49;5.32;;;1.75;;
33824;SDS011;20127;48.962;8.342;2023-02-25T14:32:10;7.32;;;1.95;;
33824;SDS011;20127;48.962;8.342;2023-02-25T14:39:05;3.47;;;1.65;;
33824;SDS011;20127;48.962;8.342;2023-02-25T14:42:22;10.38;;;1.92;;
33824;SDS011;20127;48.962;8.342;2023-02-25T14:45:36;15.48;;;2.88;;
33824;SDS011;20127;48.962;8.342;2023-02-25T14:48:45;3.85;;;2.17;;
33824;SDS011;20127;48.962;8.342;2023-02-25T14:55:37;2.90;;;1.42;;
33824;SDS011;20127;48.962;8.342;2023-02-25T14:58:57;4.68;;;2.20;;
33824;SDS011;20127;48.962;8.342;2023-02-25T15:02:18;5.00;;;1.85;;
33824;SDS011;20127;48.962;8.342;2023-02-25T15:13:03;2.47;;;1.17;;
33824;SDS011;20127;48.962;8.342;2023-02-25T15:16:30;4.88;;;1.30;;
33824;SDS011;20127;48.962;8.342;2023-02-25T15:19:54;4.15;;;1.48;;
33824;SDS011;20127;48.962;8.342;2023-02-25T15:23:08;3.88;;;1.25;;
33824;SDS011;20127;48.962;8.342;2023-02-25T15:26:19;5.28;;;2.08;;
33824;SDS011;20127;48.962;8.342;2023-02-25T15:29:54;3.30;;;1.35;;
33824;SDS011;20127;48.962;8.342;2023-02-25T15:33:05;8.65;;;2.10;;
33824;SDS011;20127;48.962;8.342;2023-02-25T15:36:20;8.80;;;2.45;;
33824;SDS011;20127;48.962;8.342;2023-02-25T15:42:50;2.90;;;1.73;;
33824;SDS011;20127;48.962;8.342;2023-02-25T15:45:53;2.80;;;1.60;;
33824;SDS011;20127;48.962;8.342;2023-02-25T15:49:31;7.00;;;2.75;;
33824;SDS011;20127;48.962;8.342;2023-02-25T15:52:53;10.82;;;2.67;;
33824;SDS011;20127;48.962;8.342;2023-02-25T15:59:44;4.93;;;1.80;;
33824;SDS011;20127;48.962;8.342;2023-02-25T16:06:39;3.28;;;1.45;;
33824;SDS011;20127;48.962;8.342;2023-02-25T16:09:43;8.18;;;2.60;;
33824;SDS011;20127;48.962;8.342;2023-02-25T16:12:52;5.97;;;2.03;;
33824;SDS011;20127;48.962;8.342;2023-02-25T16:15:57;3.95;;;1.60;;
33824;SDS011;20127;48.962;8.342;2023-02-25T16:19:02;2.67;;;1.75;;
33824;SDS011;20127;48.962;8.342;2023-02-25T16:22:11;5.28;;;2.42;;
33824;SDS011;20127;48.962;8.342;2023-02-25T16:25:32;7.28;;;1.75;;
33824;SDS011;20127;48.962;8.342;2023-02-25T16:28:42;4.85;;;2.58;;
33824;SDS011;20127;48.962;8.342;2023-02-25T16:31:52;8.85;;;2.65;;
33824;SDS011;20127;48.962;8.342;2023-02-25T16:34:59;7.22;;;2.47;;
33824;SDS011;20127;48.962;8.342;2023-02-25T16:38:08;5.85;;;2.50;;
33824;SDS011;20127;48.962;8.342;2023-02-25T16:41:17;6.30;;;2.22;;
33824;SDS011;20127;48.962;8.342;2023-02-25T16:44:19;6.25;;;2.95;;
33824;SDS011;20127;48.962;8.342;2023-02-25T16:47:25;2.58;;;1.75;;
33824;SDS011;20127;48.962;8.342;2023-02-25T16:50:29;8.05;;;2.20;;
33824;SDS011;20127;48.962;8.342;2023-02-25T16:53:33;2.35;;;1.77;;
33824;SDS011;20127;48.962;8.342;2023-02-25T16:56:40;5.28;;;3.20;;
33824;SDS011;20127;48.962;8.342;2023-02-25T16:59:45;34.38;;;15.90;;
33824;SDS011;20127;48.962;8.342;2023-02-25T17:02:51;21.00;;;10.25;;
33824;SDS011;20127;48.962;8.342;2023-02-25T17:06:00;10.48;;;4.50;;
33824;SDS011;20127;48.962;8.342;2023-02-25T17:09:05;67.88;;;31.55;;
33824;SDS011;20127;48.962;8.342;2023-02-25T17:12:08;26.15;;;15.82;;
33824;SDS011;20127;48.962;8.342;2023-02-25T17:15:15;20.73;;;10.57;;
33824;SDS011;20127;48.962;8.342;2023-02-25T17:18:23;9.88;;;4.40;;
33824;SDS011;20127;48.962;8.342;2023-02-25T17:21:29;66.35;;;42.17;;
33824;SDS011;20127;48.962;8.342;2023-02-25T17:24:33;22.77;;;18.40;;
33824;SDS011;20127;48.962;8.342;2023-02-25T17:27:36;8.38;;;7.68;;
33824;SDS011;20127;48.962;8.342;2023-02-25T17:30:38;5.78;;;4.40;;
33824;SDS011;20127;48.962;8.342;2023-02-25T17:33:46;3.85;;;2.65;;
33824;SDS011;20127;48.962;8.342;2023-02-25T17:36:50;8.55;;;3.90;;
33824;SDS011;20127;48.962;8.342;2023-02-25T17:39:54;8.10;;;4.53;;
33824;SDS011;20127;48.962;8.342;2023-02-25T17:43:16;6.03;;;4.25;;
33824;SDS011;20127;48.962;8.342;2023-02-25T17:46:25;4.55;;;3.20;;
33824;SDS011;20127;48.962;8.342;2023-02-25T17:49:31;5.90;;;2.53;;
33824;SDS011;20127;48.962;8.342;2023-02-25T17:52:34;2.40;;;2.03;;
33824;SDS011;20127;48.962;8.342;2023-02-25T17:55:36;7.53;;;2.40;;
33824;SDS011;20127;48.962;8.342;2023-02-25T17:58:38;6.10;;;2.70;;
33824;SDS011;20127;48.962;8.342;2023-02-25T18:01:44;3.70;;;2.83;;
33824;SDS011;20127;48.962;8.342;2023-02-25T18:04:48;11.93;;;3.72;;
33824;SDS011;20127;48.962;8.342;2023-02-25T18:07:58;5.18;;;2.35;;
33824;SDS011;20127;48.962;8.342;2023-02-25T18:11:19;4.47;;;2.15;;
33824;SDS011;20127;48.962;8.342;2023-02-25T18:14:26;2.93;;;2.13;;
33824;SDS011;20127;48.962;8.342;2023-02-25T18:17:33;3.97;;;2.45;;
33824;SDS011;20127;48.962;8.342;2023-02-25T18:20:39;2.35;;;1.90;;
33824;SDS011;20127;48.962;8.342;2023-02-25T18:23:45;5.03;;;2.38;;
33824;SDS011;20127;48.962;8.342;2023-02-25T18:27:06;2.90;;;2.67;;
33824;SDS011;20127;48.962;8.342;2023-02-25T18:30:21;4.40;;;3.28;;
33824;SDS011;20127;48.962;8.342;2023-02-25T18:33:25;26.33;;;23.17;;
33824;SDS011;20127;48.962;8.342;2023-02-25T18:36:28;34.30;;;31.25;;
33824;SDS011;20127;48.962;8.342;2023-02-25T18:39:29;6.65;;;5.95;;
33824;SDS011;20127;48.962;8.342;2023-02-25T18:42:31;3.25;;;2.95;;
33824;SDS011;20127;48.962;8.342;2023-02-25T18:45:33;8.02;;;3.08;;
33824;SDS011;20127;48.962;8.342;2023-02-25T18:48:35;5.72;;;3.78;;
33824;SDS011;20127;48.962;8.342;2023-02-25T18:51:38;4.30;;;3.28;;
33824;SDS011;20127;48.962;8.342;2023-02-25T18:54:40;3.25;;;2.42;;
33824;SDS011;20127;48.962;8.342;2023-02-25T18:57:42;5.10;;;4.03;;
33824;SDS011;20127;48.962;8.342;2023-02-25T19:00:44;3.60;;;2.25;;
33824;SDS011;20127;48.962;8.342;2023-02-25T19:03:48;9.88;;;3.58;;
33824;SDS011;20127;48.962;8.342;2023-02-25T19:06:52;7.20;;;2.17;;
33824;SDS011;20127;48.962;8.342;2023-02-25T19:09:54;6.07;;;2.72;;
33824;SDS011;20127;48.962;8.342;2023-02-25T19:12:57;3.88;;;2.17;;
33824;SDS011;20127;48.962;8.342;2023-02-25T19:16:03;3.17;;;2.00;;
33824;SDS011;20127;48.962;8.342;2023-02-25T19:19:05;2.58;;;2.10;;
33824;SDS011;20127;48.962;8.342;2023-02-25T19:22:09;4.35;;;3.88;;
33824;SDS011;20127;48.962;8.342;2023-02-25T19:25:14;4.82;;;3.22;;
33824;SDS011;20127;48.962;8.342;2023-02-25T19:28:19;3.38;;;2.47;;
33824;SDS011;20127;48.962;8.342;2023-02-25T19:31:20;3.22;;;2.92;;
33824;SDS011;20127;48.962;8.342;2023-02-25T19:34:22;6.35;;;3.67;;
33824;SDS011;20127;48.962;8.342;2023-02-25T19:37:25;9.77;;;4.40;;
33824;SDS011;20127;48.962;8.342;2023-02-25T19:40:31;3.72;;;2.78;;
33824;SDS011;20127;48.962;8.342;2023-02-25T19:43:33;6.75;;;3.10;;
33824;SDS011;20127;48.962;8.342;2023-02-25T19:46:35;10.80;;;3.55;;
33824;SDS011;20127;48.962;8.342;2023-02-25T19:49:36;11.55;;;3.20;;
33824;SDS011;20127;48.962;8.342;2023-02-25T19:52:40;4.45;;;3.10;;
33824;SDS011;20127;48.962;8.342;2023-02-25T19:55:42;7.05;;;4.30;;
33824;SDS011;20127;48.962;8.342;2023-02-25T19:58:44;4.20;;;2.55;;
33824;SDS011;20127;48.962;8.342;2023-02-25T20:01:46;5.78;;;2.80;;
33824;SDS011;20127;48.962;8.342;2023-02-25T20:04:48;9.75;;;2.70;;
33824;SDS011;20127;48.962;8.342;2023-02-25T20:07:51;9.23;;;3.10;;
33824;SDS011;20127;48.962;8.342;2023-02-25T20:10:53;3.22;;;2.00;;
33824;SDS011;20127;48.962;8.342;2023-02-25T20:13:55;3.67;;;2.65;;
33824;SDS011;20127;48.962;8.342;2023-02-25T20:16:56;5.13;;;4.68;;
33824;SDS011;20127;48.962;8.342;2023-02-25T20:19:59;4.15;;;3.58;;
33824;SDS011;20127;48.962;8.342;2023-02-25T20:23:02;10.32;;;4.65;;
33824;SDS011;20127;48.962;8.342;2023-02-25T20:26:05;4.68;;;3.55;;
33824;SDS011;20127;48.962;8.342;2023-02-25T20:29:08;6.47;;;2.88;;
33824;SDS011;20127;48.962;8.342;2023-02-25T20:32:10;8.25;;;2.80;;
33824;SDS011;20127;48.962;8.342;2023-02-25T20:35:13;5.75;;;3.05;;
33824;SDS011;20127;48.962;8.342;2023-02-25T20:38:23;9.40;;;2.53;;
33824;SDS011;20127;48.962;8.342;2023-02-25T20:41:28;4.57;;;2.72;;
33824;SDS011;20127;48.962;8.342;2023-02-25T20:44:30;9.80;;;3.75;;
33824;SDS011;20127;48.962;8.342;2023-02-25T20:47:33;2.60;;;2.35;;
33824;SDS011;20127;48.962;8.342;2023-02-25T20:50:35;3.47;;;2.22;;
33824;SDS011;20127;48.962;8.342;2023-02-25T20:53:39;3.42;;;1.77;;
33824;SDS011;20127;48.962;8.342;2023-02-25T20:56:41;6.30;;;3.42;;
33824;SDS011;20127;48.962;8.342;2023-02-25T20:59:44;4.97;;;2.65;;
33824;SDS011;20127;48.962;8.342;2023-02-25T21:02:47;5.25;;;3.10;;
33824;SDS011;20127;48.962;8.342;2023-02-25T21:05:48;7.05;;;2.40;;
33824;SDS011;20127;48.962;8.342;2023-02-25T21:08:52;4.53;;;2.50;;
33824;SDS011;20127;48.962;8.342;2023-02-25T21:11:54;5.00;;;3.13;;
33824;SDS011;20127;48.962;8.342;2023-02-25T21:14:56;4.13;;;2.70;;
33824;SDS011;20127;48.962;8.342;2023-02-25T21:17:58;2.30;;;2.10;;
33824;SDS011;20127;48.962;8.342;2023-02-25T21:21:00;2.40;;;1.90;;
33824;SDS011;20127;48.962;8.342;2023-02-25T21:24:05;3.50;;;2.05;;
33824;SDS011;20127;48.962;8.342;2023-02-25T21:27:08;6.15;;;2.13;;
33824;SDS011;20127;48.962;8.342;2023-02-25T21:30:11;5.80;;;2.17;;
33824;SDS011;20127;48.962;8.342;2023-02-25T21:33:13;5.57;;;2.55;;
33824;SDS011;20127;48.962;8.342;2023-02-25T21:36:14;5.45;;;4.55;;
33824;SDS011;20127;48.962;8.342;2023-02-25T21:39:18;4.90;;;4.40;;
33824;SDS011;20127;48.962;8.342;2023-02-25T21:42:19;3.25;;;2.70;;
33824;SDS011;20127;48.962;8.342;2023-02-25T21:45:21;2.67;;;1.85;;
33824;SDS011;20127;48.962;8.342;2023-02-25T21:48:23;8.95;;;2.63;;
33824;SDS011;20127;48.962;8.342;2023-02-25T21:51:26;56.83;;;31.17;;
33824;SDS011;20127;48.962;8.342;2023-02-25T21:54:30;6.10;;;3.40;;
33824;SDS011;20127;48.962;8.342;2023-02-25T21:57:32;3.97;;;3.63;;
33824;SDS011;20127;48.962;8.342;2023-02-25T22:00:33;2.55;;;2.35;;
33824;SDS011;20127;48.962;8.342;2023-02-25T22:03:36;3.85;;;2.67;;
33824;SDS011;20127;48.962;8.342;2023-02-25T22:06:38;4.40;;;1.85;;
33824;SDS011;20127;48.962;8.342;2023-02-25T22:09:43;3.17;;;1.85;;
33824;SDS011;20127;48.962;8.342;2023-02-25T22:12:44;7.28;;;2.03;;
33824;SDS011;20127;48.962;8.342;2023-02-25T22:15:46;2.13;;;1.40;;
33824;SDS011;20127;48.962;8.342;2023-02-25T22:18:48;4.78;;;2.08;;
33824;SDS011;20127;48.962;8.342;2023-02-25T22:21:50;3.40;;;2.20;;
33824;SDS011;20127;48.962;8.342;2023-02-25T22:24:53;9.25;;;2.30;;
33824;SDS011;20127;48.962;8.342;2023-02-25T22:27:55;2.22;;;1.77;;
33824;SDS011;20127;48.962;8.342;2023-02-25T22:30:58;5.97;;;2.42;;
33824;SDS011;20127;48.962;8.342;2023-02-25T22:34:00;4.68;;;3.70;;
33824;SDS011;20127;48.962;8.342;2023-02-25T22:37:02;2.38;;;1.90;;
33824;SDS011;20127;48.962;8.342;2023-02-25T22:40:06;4.22;;;1.42;;
33824;SDS011;20127;48.962;8.342;2023-02-25T22:43:09;3.47;;;2.22;;
33824;SDS011;20127;48.962;8.342;2023-02-25T22:46:11;2.53;;;2.17;;
33824;SDS011;20127;48.962;8.342;2023-02-25T22:49:14;4.35;;;2.47;;
33824;SDS011;20127;48.962;8.342;2023-02-25T22:52:16;4.13;;;1.65;;